Marathon, FL

12:49 AM EDT on September 30, 2016 (GMT -0400)
| | Change Station

Elev -9999 ft 0.00 °N, 0.00 °E | Updated

Partly Cloudy
Partly Cloudy
82 °F
Feels Like 90 °F
N
4
Wind Variable Wind from ESE
Gusts mph

Today
High -- | Low -- °F
--% Chance of Precip.
Yesterday
High -- | Low -- °F
Precip. -- in
Pressure 30.07 in
Visibility -9999.0 miles
Clouds Scattered Clouds 2600 ft
Heat Index 90 °F
Dew Point 75 °F
Humidity 80%
Rainfall --
Snow Depth Not available.
7:15 AM 7:10 PM
Waning Crescent, 1% visible
SPECI KNQX 300439Z AUTO 05003KT SCT026 28/24 A3007 RMK AO2 T02830239 $
Pressure 30.07 in
Visibility -9999.0 miles
Clouds Scattered Clouds 2600 ft
Heat Index 90 °F
Dew Point 75 °F
Humidity 80%
Rainfall --
Snow Depth Not available.
7:15 AM 7:10 PM
Waning Crescent, 1% visible
SPECI KNQX 300439Z AUTO 05003KT SCT026 28/24 A3007 RMK AO2 T02830239 $

10-Day Weather Forecast

Almanac

Astronomy

Sep. 30, 2016 Rise Set
Actual Time
Civil Twilight
Nautical Twilight
Astronomical Twilight
Moon
Length of Visible Light
Length of Day
Tomorrow will be .
, % of the Moon is Illuminated

Today's Extremes

State Highs State Lows

Community

WunderPhotos

Upload Photos

1,942,665 photos uploaded!

WunderBlog® & News

Nearby

Air Quality

  Air Quality AQ Index Pollutant
Not available.

Snow Depth

Station Depth Elevation

Earthquake Activity

City Distance Mag. Time & Date
Minimum magnitude displayed is 2.5.

Coastal Water Temperatures

Place Temperature

Stations

Nearby Weather Stations

Station Location Temp. Windchill Dew Point Humidity Wind Precip. Elev Updated Type
                   

Watches & Warnings

There are currently no watches in effect.